sensor_id;sensor_type;location;lat;lon;timestamp;pressure;altitude;pressure_sealevel;temperature;humidity
250;BME280;109;19.806;-70.704;2023-04-26T00:01:09;101208.91;;;26.05;58.85
250;BME280;109;19.806;-70.704;2023-04-26T00:03:36;101208.75;;;26.08;58.75
250;BME280;109;19.806;-70.704;2023-04-26T00:06:02;101210.19;;;25.98;58.87
250;BME280;109;19.806;-70.704;2023-04-26T00:08:34;101210.56;;;26.08;59.06
250;BME280;109;19.806;-70.704;2023-04-26T00:11:00;101210.72;;;26.22;59.25
250;BME280;109;19.806;-70.704;2023-04-26T00:13:27;101220.66;;;26.03;59.04
250;BME280;109;19.806;-70.704;2023-04-26T00:15:53;101215.63;;;25.97;59.31
250;BME280;109;19.806;-70.704;2023-04-26T00:18:20;101225.72;;;25.92;59.65
250;BME280;109;19.806;-70.704;2023-04-26T00:20:46;101229.34;;;25.91;60.15
250;BME280;109;19.806;-70.704;2023-04-26T00:23:13;101232.25;;;26.03;59.96
250;BME280;109;19.806;-70.704;2023-04-26T00:25:39;101247.09;;;26.10;59.89
250;BME280;109;19.806;-70.704;2023-04-26T00:28:06;101251.03;;;26.03;59.53
250;BME280;109;19.806;-70.704;2023-04-26T00:30:34;101245.59;;;26.05;59.32
250;BME280;109;19.806;-70.704;2023-04-26T00:33:02;101255.31;;;26.07;59.80
250;BME280;109;19.806;-70.704;2023-04-26T00:35:29;101248.75;;;25.96;59.01
250;BME280;109;19.806;-70.704;2023-04-26T00:37:56;101252.50;;;25.74;59.20
250;BME280;109;19.806;-70.704;2023-04-26T00:40:23;101258.47;;;25.79;59.57
250;BME280;109;19.806;-70.704;2023-04-26T00:42:56;101263.66;;;25.84;59.37
250;BME280;109;19.806;-70.704;2023-04-26T00:45:23;101263.78;;;25.81;59.76
250;BME280;109;19.806;-70.704;2023-04-26T00:47:50;101260.19;;;25.99;59.04
250;BME280;109;19.806;-70.704;2023-04-26T00:50:16;101256.09;;;26.09;59.29
250;BME280;109;19.806;-70.704;2023-04-26T00:52:45;101263.88;;;26.14;58.64
250;BME280;109;19.806;-70.704;2023-04-26T00:55:13;101264.50;;;26.02;58.96
250;BME280;109;19.806;-70.704;2023-04-26T00:57:41;101269.59;;;26.08;58.99
250;BME280;109;19.806;-70.704;2023-04-26T01:00:09;101274.06;;;26.07;59.43
250;BME280;109;19.806;-70.704;2023-04-26T01:02:35;101281.66;;;25.99;59.48
250;BME280;109;19.806;-70.704;2023-04-26T01:05:03;101287.97;;;25.98;59.61
250;BME280;109;19.806;-70.704;2023-04-26T01:07:30;101288.59;;;25.86;59.66
250;BME280;109;19.806;-70.704;2023-04-26T01:10:04;101298.38;;;25.87;59.76
250;BME280;109;19.806;-70.704;2023-04-26T01:12:31;101299.63;;;25.97;59.67
250;BME280;109;19.806;-70.704;2023-04-26T01:15:05;101300.06;;;25.88;60.39
250;BME280;109;19.806;-70.704;2023-04-26T01:17:32;101302.19;;;26.00;59.96
250;BME280;109;19.806;-70.704;2023-04-26T01:20:05;101305.00;;;25.97;60.10
250;BME280;109;19.806;-70.704;2023-04-26T01:22:34;101302.09;;;26.19;60.14
250;BME280;109;19.806;-70.704;2023-04-26T01:25:10;101302.25;;;26.16;59.40
250;BME280;109;19.806;-70.704;2023-04-26T01:27:38;101299.75;;;26.13;59.72
250;BME280;109;19.806;-70.704;2023-04-26T01:30:11;101305.00;;;25.97;60.12
250;BME280;109;19.806;-70.704;2023-04-26T01:32:37;101299.25;;;26.05;60.16
250;BME280;109;19.806;-70.704;2023-04-26T01:35:18;101302.66;;;26.08;60.69
250;BME280;109;19.806;-70.704;2023-04-26T01:37:51;101296.19;;;26.12;60.94
250;BME280;109;19.806;-70.704;2023-04-26T01:40:20;101300.91;;;26.07;60.60
250;BME280;109;19.806;-70.704;2023-04-26T01:42:53;101302.25;;;25.99;60.60
250;BME280;109;19.806;-70.704;2023-04-26T01:45:20;101297.91;;;25.96;60.05
250;BME280;109;19.806;-70.704;2023-04-26T01:48:12;101305.00;;;25.78;59.94
250;BME280;109;19.806;-70.704;2023-04-26T01:50:46;101307.19;;;25.89;60.34
250;BME280;109;19.806;-70.704;2023-04-26T01:53:12;101312.19;;;25.97;60.52
250;BME280;109;19.806;-70.704;2023-04-26T01:55:45;101310.03;;;26.03;60.18
250;BME280;109;19.806;-70.704;2023-04-26T01:58:11;101316.59;;;25.98;59.74
250;BME280;109;19.806;-70.704;2023-04-26T02:00:45;101318.09;;;25.86;60.23
250;BME280;109;19.806;-70.704;2023-04-26T02:03:11;101320.69;;;25.88;60.20
250;BME280;109;19.806;-70.704;2023-04-26T02:05:44;101321.25;;;25.94;60.72
250;BME280;109;19.806;-70.704;2023-04-26T02:08:10;101324.00;;;25.93;60.12
250;BME280;109;19.806;-70.704;2023-04-26T02:10:42;101327.72;;;26.07;59.92
250;BME280;109;19.806;-70.704;2023-04-26T02:13:09;101328.53;;;26.09;60.28
250;BME280;109;19.806;-70.704;2023-04-26T02:15:45;101333.88;;;26.09;59.77
250;BME280;109;19.806;-70.704;2023-04-26T02:18:19;101326.94;;;26.05;59.70
250;BME280;109;19.806;-70.704;2023-04-26T02:20:46;101328.44;;;26.11;59.29
250;BME280;109;19.806;-70.704;2023-04-26T02:23:27;101330.63;;;26.03;59.09
250;BME280;109;19.806;-70.704;2023-04-26T02:26:01;101333.31;;;26.03;59.00
250;BME280;109;19.806;-70.704;2023-04-26T02:28:28;101332.38;;;26.04;58.59
250;BME280;109;19.806;-70.704;2023-04-26T02:31:01;101342.09;;;26.06;58.55
250;BME280;109;19.806;-70.704;2023-04-26T02:33:29;101341.44;;;26.01;58.40
250;BME280;109;19.806;-70.704;2023-04-26T02:36:04;101342.47;;;25.99;58.53
250;BME280;109;19.806;-70.704;2023-04-26T02:38:44;101335.31;;;25.99;57.97
250;BME280;109;19.806;-70.704;2023-04-26T02:41:10;101343.03;;;26.05;58.06
250;BME280;109;19.806;-70.704;2023-04-26T02:43:44;101348.78;;;25.98;58.05
250;BME280;109;19.806;-70.704;2023-04-26T02:46:10;101343.28;;;26.01;58.72
250;BME280;109;19.806;-70.704;2023-04-26T02:48:44;101346.97;;;25.98;58.20
250;BME280;109;19.806;-70.704;2023-04-26T02:51:10;101350.53;;;25.99;57.82
250;BME280;109;19.806;-70.704;2023-04-26T02:53:42;101346.78;;;26.01;57.43
250;BME280;109;19.806;-70.704;2023-04-26T02:56:09;101352.16;;;26.01;57.50
250;BME280;109;19.806;-70.704;2023-04-26T02:58:43;101357.38;;;26.04;57.48
250;BME280;109;19.806;-70.704;2023-04-26T03:01:10;101353.22;;;26.16;57.94
250;BME280;109;19.806;-70.704;2023-04-26T03:03:45;101352.16;;;26.01;58.03
250;BME280;109;19.806;-70.704;2023-04-26T03:06:19;101346.44;;;26.09;57.70
250;BME280;109;19.806;-70.704;2023-04-26T03:08:45;101345.25;;;26.14;58.11
250;BME280;109;19.806;-70.704;2023-04-26T03:11:19;101348.78;;;26.15;57.33
250;BME280;109;19.806;-70.704;2023-04-26T03:13:45;101343.69;;;26.10;57.80
250;BME280;109;19.806;-70.704;2023-04-26T03:16:27;101345.00;;;26.02;57.69
250;BME280;109;19.806;-70.704;2023-04-26T03:19:00;101341.38;;;26.03;57.57
250;BME280;109;19.806;-70.704;2023-04-26T03:21:27;101347.19;;;25.94;57.45
250;BME280;109;19.806;-70.704;2023-04-26T03:24:00;101342.56;;;25.97;57.36
250;BME280;109;19.806;-70.704;2023-04-26T03:26:27;101341.06;;;26.09;57.45
250;BME280;109;19.806;-70.704;2023-04-26T03:29:00;101339.25;;;26.09;57.61
250;BME280;109;19.806;-70.704;2023-04-26T03:31:27;101339.53;;;26.03;57.15
250;BME280;109;19.806;-70.704;2023-04-26T03:34:01;101344.22;;;26.00;57.06
250;BME280;109;19.806;-70.704;2023-04-26T03:36:47;101340.66;;;25.99;57.49
250;BME280;109;19.806;-70.704;2023-04-26T03:39:21;101345.09;;;26.00;57.42
250;BME280;109;19.806;-70.704;2023-04-26T03:41:47;101341.28;;;25.87;57.32
250;BME280;109;19.806;-70.704;2023-04-26T03:44:21;101345.28;;;25.77;57.58
250;BME280;109;19.806;-70.704;2023-04-26T03:46:48;101344.22;;;26.00;56.88
250;BME280;109;19.806;-70.704;2023-04-26T03:49:21;101340.97;;;25.93;57.32
250;BME280;109;19.806;-70.704;2023-04-26T03:51:48;101342.41;;;25.81;57.26
250;BME280;109;19.806;-70.704;2023-04-26T03:54:21;101335.84;;;25.70;56.89
250;BME280;109;19.806;-70.704;2023-04-26T03:56:47;101343.81;;;25.71;57.00
250;BME280;109;19.806;-70.704;2023-04-26T03:59:21;101338.78;;;25.64;57.10
250;BME280;109;19.806;-70.704;2023-04-26T04:01:47;101338.16;;;25.59;57.66
250;BME280;109;19.806;-70.704;2023-04-26T04:04:21;101331.56;;;25.66;57.69
250;BME280;109;19.806;-70.704;2023-04-26T04:06:55;101330.59;;;25.67;57.24
250;BME280;109;19.806;-70.704;2023-04-26T04:09:29;101335.97;;;25.67;57.32
250;BME280;109;19.806;-70.704;2023-04-26T04:12:02;101330.41;;;25.71;57.20
250;BME280;109;19.806;-70.704;2023-04-26T04:14:29;101328.41;;;25.75;57.45
250;BME280;109;19.806;-70.704;2023-04-26T04:17:02;101327.66;;;25.73;57.45
250;BME280;109;19.806;-70.704;2023-04-26T04:19:29;101322.72;;;25.64;57.83
250;BME280;109;19.806;-70.704;2023-04-26T04:22:02;101325.25;;;25.67;57.68
250;BME280;109;19.806;-70.704;2023-04-26T04:24:28;101321.03;;;25.80;57.57
250;BME280;109;19.806;-70.704;2023-04-26T04:27:02;101314.88;;;25.78;57.88
250;BME280;109;19.806;-70.704;2023-04-26T04:29:29;101309.16;;;25.67;57.79
250;BME280;109;19.806;-70.704;2023-04-26T04:32:03;101305.06;;;25.60;58.23
250;BME280;109;19.806;-70.704;2023-04-26T04:34:52;101300.56;;;25.60;58.94
250;BME280;109;19.806;-70.704;2023-04-26T04:37:26;101293.53;;;25.58;58.83
250;BME280;109;19.806;-70.704;2023-04-26T04:39:54;101299.97;;;25.72;58.62
250;BME280;109;19.806;-70.704;2023-04-26T04:42:30;101292.63;;;25.76;59.00
250;BME280;109;19.806;-70.704;2023-04-26T04:45:06;101283.22;;;25.67;58.68
250;BME280;109;19.806;-70.704;2023-04-26T04:47:35;101286.78;;;25.68;58.67
250;BME280;109;19.806;-70.704;2023-04-26T04:50:20;101289.25;;;25.72;58.47
250;BME280;109;19.806;-70.704;2023-04-26T04:53:07;101277.97;;;25.83;58.31
250;BME280;109;19.806;-70.704;2023-04-26T04:55:41;101281.41;;;25.87;57.86
250;BME280;109;19.806;-70.704;2023-04-26T04:58:08;101274.38;;;25.84;58.23
250;BME280;109;19.806;-70.704;2023-04-26T05:00:41;101274.25;;;25.87;58.26
250;BME280;109;19.806;-70.704;2023-04-26T05:03:15;101276.78;;;25.71;58.05
250;BME280;109;19.806;-70.704;2023-04-26T05:05:49;101280.53;;;25.67;57.82
250;BME280;109;19.806;-70.704;2023-04-26T05:08:16;101270.41;;;25.74;57.84
250;BME280;109;19.806;-70.704;2023-04-26T05:10:50;101274.91;;;25.73;57.78
250;BME280;109;19.806;-70.704;2023-04-26T05:13:18;101272.84;;;25.78;57.45
250;BME280;109;19.806;-70.704;2023-04-26T05:15:51;101270.22;;;25.77;57.27
250;BME280;109;19.806;-70.704;2023-04-26T05:18:24;101269.81;;;25.86;57.42
250;BME280;109;19.806;-70.704;2023-04-26T05:20:50;101261.44;;;25.92;57.51
250;BME280;109;19.806;-70.704;2023-04-26T05:23:24;101252.00;;;25.85;57.06
250;BME280;109;19.806;-70.704;2023-04-26T05:25:51;101248.31;;;25.69;57.91
250;BME280;109;19.806;-70.704;2023-04-26T05:28:56;101243.22;;;25.63;58.22
250;BME280;109;19.806;-70.704;2023-04-26T05:31:38;101241.34;;;25.65;58.14
250;BME280;109;19.806;-70.704;2023-04-26T05:34:32;101234.16;;;25.65;58.18
250;BME280;109;19.806;-70.704;2023-04-26T05:37:15;101235.91;;;25.66;58.18
250;BME280;109;19.806;-70.704;2023-04-26T05:39:49;101240.72;;;25.60;57.62
250;BME280;109;19.806;-70.704;2023-04-26T05:42:16;101237.78;;;25.47;58.35
250;BME280;109;19.806;-70.704;2023-04-26T05:44:49;101230.44;;;25.51;57.91
250;BME280;109;19.806;-70.704;2023-04-26T05:47:16;101230.25;;;25.36;58.08
250;BME280;109;19.806;-70.704;2023-04-26T05:49:58;101226.81;;;25.52;58.32
250;BME280;109;19.806;-70.704;2023-04-26T05:52:32;101222.31;;;25.52;57.88
250;BME280;109;19.806;-70.704;2023-04-26T05:54:58;101232.19;;;25.52;58.51
250;BME280;109;19.806;-70.704;2023-04-26T05:57:35;101224.13;;;25.52;58.38
250;BME280;109;19.806;-70.704;2023-04-26T06:00:03;101222.03;;;25.58;57.66
250;BME280;109;19.806;-70.704;2023-04-26T06:02:39;101222.84;;;25.60;57.96
250;BME280;109;19.806;-70.704;2023-04-26T06:05:11;101220.66;;;25.50;57.66
250;BME280;109;19.806;-70.704;2023-04-26T06:07:44;101219.56;;;25.54;58.11
250;BME280;109;19.806;-70.704;2023-04-26T06:10:11;101210.59;;;25.55;58.15
250;BME280;109;19.806;-70.704;2023-04-26T06:12:46;101216.91;;;25.54;57.95
250;BME280;109;19.806;-70.704;2023-04-26T06:15:13;101208.72;;;25.57;57.88
250;BME280;109;19.806;-70.704;2023-04-26T06:17:46;101208.84;;;25.54;58.06
250;BME280;109;19.806;-70.704;2023-04-26T06:20:12;101206.03;;;25.57;58.29
250;BME280;109;19.806;-70.704;2023-04-26T06:22:46;101213.00;;;25.42;58.41
250;BME280;109;19.806;-70.704;2023-04-26T06:25:12;101211.59;;;25.52;58.29
250;BME280;109;19.806;-70.704;2023-04-26T06:27:46;101211.84;;;25.48;57.77
250;BME280;109;19.806;-70.704;2023-04-26T06:30:13;101218.63;;;25.55;58.21
250;BME280;109;19.806;-70.704;2023-04-26T06:32:47;101218.09;;;25.48;58.52
250;BME280;109;19.806;-70.704;2023-04-26T06:35:40;101212.47;;;25.53;57.83
250;BME280;109;19.806;-70.704;2023-04-26T06:38:13;101210.66;;;25.53;58.08
250;BME280;109;19.806;-70.704;2023-04-26T06:40:40;101202.56;;;25.55;58.10
250;BME280;109;19.806;-70.704;2023-04-26T06:43:15;101200.88;;;25.52;58.06
250;BME280;109;19.806;-70.704;2023-04-26T06:45:52;101198.13;;;25.54;58.07
250;BME280;109;19.806;-70.704;2023-04-26T06:48:26;101192.78;;;25.54;58.13
250;BME280;109;19.806;-70.704;2023-04-26T06:50:52;101199.00;;;25.54;57.77
250;BME280;109;19.806;-70.704;2023-04-26T06:53:25;101199.72;;;25.58;57.81
250;BME280;109;19.806;-70.704;2023-04-26T06:55:51;101192.56;;;25.58;58.03
250;BME280;109;19.806;-70.704;2023-04-26T06:58:25;101191.03;;;25.53;58.05
250;BME280;109;19.806;-70.704;2023-04-26T07:00:58;101192.22;;;25.47;58.33
250;BME280;109;19.806;-70.704;2023-04-26T07:03:24;101192.06;;;25.50;57.80
250;BME280;109;19.806;-70.704;2023-04-26T07:05:57;101186.53;;;25.53;58.15
250;BME280;109;19.806;-70.704;2023-04-26T07:08:30;101193.09;;;25.48;58.12
250;BME280;109;19.806;-70.704;2023-04-26T07:10:56;101184.88;;;25.51;58.21
250;BME280;109;19.806;-70.704;2023-04-26T07:13:29;101191.34;;;25.47;58.28
250;BME280;109;19.806;-70.704;2023-04-26T07:15:56;101181.59;;;25.45;58.21
250;BME280;109;19.806;-70.704;2023-04-26T07:18:29;101174.47;;;25.44;58.32
250;BME280;109;19.806;-70.704;2023-04-26T07:20:55;101172.75;;;25.43;58.64
250;BME280;109;19.806;-70.704;2023-04-26T07:23:29;101176.03;;;25.31;59.03
250;BME280;109;19.806;-70.704;2023-04-26T07:25:55;101167.31;;;25.45;58.72
250;BME280;109;19.806;-70.704;2023-04-26T07:28:28;101169.66;;;25.51;58.57
250;BME280;109;19.806;-70.704;2023-04-26T07:30:54;101169.06;;;25.46;58.38
250;BME280;109;19.806;-70.704;2023-04-26T07:33:27;101166.59;;;25.41;58.32
250;BME280;109;19.806;-70.704;2023-04-26T07:36:14;101168.72;;;25.35;58.66
250;BME280;109;19.806;-70.704;2023-04-26T07:38:48;101171.00;;;25.24;58.92
250;BME280;109;19.806;-70.704;2023-04-26T07:41:14;101162.34;;;25.19;58.75
250;BME280;109;19.806;-70.704;2023-04-26T07:43:49;101163.50;;;25.13;58.65
250;BME280;109;19.806;-70.704;2023-04-26T07:46:15;101166.50;;;25.07;58.97
250;BME280;109;19.806;-70.704;2023-04-26T07:48:49;101174.47;;;25.08;59.19
250;BME280;109;19.806;-70.704;2023-04-26T07:51:15;101169.09;;;25.08;59.34
250;BME280;109;19.806;-70.704;2023-04-26T07:53:49;101175.81;;;25.17;59.33
250;BME280;109;19.806;-70.704;2023-04-26T07:56:15;101175.00;;;25.15;59.40
250;BME280;109;19.806;-70.704;2023-04-26T07:58:49;101170.53;;;25.16;59.48
250;BME280;109;19.806;-70.704;2023-04-26T08:01:15;101178.56;;;25.16;59.27
250;BME280;109;19.806;-70.704;2023-04-26T08:03:48;101182.84;;;25.20;59.47
250;BME280;109;19.806;-70.704;2023-04-26T08:06:14;101179.34;;;25.18;59.26
250;BME280;109;19.806;-70.704;2023-04-26T08:08:48;101185.72;;;25.15;59.51
250;BME280;109;19.806;-70.704;2023-04-26T08:11:16;101180.50;;;25.12;59.48
250;BME280;109;19.806;-70.704;2023-04-26T08:13:49;101174.69;;;25.04;59.42
250;BME280;109;19.806;-70.704;2023-04-26T08:16:15;101168.38;;;25.05;59.45
250;BME280;109;19.806;-70.704;2023-04-26T08:18:49;101168.66;;;24.99;59.44
250;BME280;109;19.806;-70.704;2023-04-26T08:21:15;101165.22;;;24.97;59.97
250;BME280;109;19.806;-70.704;2023-04-26T08:23:49;101164.25;;;24.98;59.83
250;BME280;109;19.806;-70.704;2023-04-26T08:26:15;101175.06;;;24.96;60.02
250;BME280;109;19.806;-70.704;2023-04-26T08:28:49;101172.94;;;25.03;59.92
250;BME280;109;19.806;-70.704;2023-04-26T08:31:23;101182.50;;;25.08;59.34
250;BME280;109;19.806;-70.704;2023-04-26T08:33:57;101179.09;;;25.05;59.79
250;BME280;109;19.806;-70.704;2023-04-26T08:36:43;101183.66;;;25.03;59.30
250;BME280;109;19.806;-70.704;2023-04-26T08:39:17;101184.03;;;24.95;59.16
250;BME280;109;19.806;-70.704;2023-04-26T08:41:49;101180.91;;;24.86;59.58
250;BME280;109;19.806;-70.704;2023-04-26T08:44:25;101185.31;;;24.87;59.62
250;BME280;109;19.806;-70.704;2023-04-26T08:49:57;101183.75;;;24.83;59.37
250;BME280;109;19.806;-70.704;2023-04-26T08:52:32;101187.19;;;24.85;59.50
250;BME280;109;19.806;-70.704;2023-04-26T08:55:01;101190.84;;;24.84;59.48
250;BME280;109;19.806;-70.704;2023-04-26T08:57:37;101192.53;;;24.85;59.14
250;BME280;109;19.806;-70.704;2023-04-26T09:00:06;101192.78;;;24.80;59.25
250;BME280;109;19.806;-70.704;2023-04-26T09:02:47;101193.00;;;24.75;59.68
250;BME280;109;19.806;-70.704;2023-04-26T09:05:14;101194.88;;;24.73;59.41
250;BME280;109;19.806;-70.704;2023-04-26T09:07:47;101194.03;;;24.71;59.53
250;BME280;109;19.806;-70.704;2023-04-26T09:10:19;101189.50;;;24.73;59.73
250;BME280;109;19.806;-70.704;2023-04-26T09:12:54;101196.72;;;24.71;59.53
250;BME280;109;19.806;-70.704;2023-04-26T09:15:22;101197.75;;;24.69;59.65
250;BME280;109;19.806;-70.704;2023-04-26T09:21:06;101191.78;;;24.62;59.91
250;BME280;109;19.806;-70.704;2023-04-26T09:23:59;101196.50;;;24.57;59.95
250;BME280;109;19.806;-70.704;2023-04-26T09:26:36;101203.88;;;24.52;59.93
250;BME280;109;19.806;-70.704;2023-04-26T09:29:16;101199.38;;;24.53;60.20
250;BME280;109;19.806;-70.704;2023-04-26T09:31:50;101205.59;;;24.53;60.07
250;BME280;109;19.806;-70.704;2023-04-26T09:34:16;101198.56;;;24.51;60.11
250;BME280;109;19.806;-70.704;2023-04-26T09:36:52;101204.94;;;24.48;60.14
250;BME280;109;19.806;-70.704;2023-04-26T09:39:34;101194.22;;;24.48;60.06
250;BME280;109;19.806;-70.704;2023-04-26T09:42:09;101202.19;;;24.50;60.03
250;BME280;109;19.806;-70.704;2023-04-26T09:44:37;101203.72;;;24.55;60.08
250;BME280;109;19.806;-70.704;2023-04-26T09:47:11;101200.88;;;24.58;60.06
250;BME280;109;19.806;-70.704;2023-04-26T09:49:48;101204.53;;;24.57;60.23
250;BME280;109;19.806;-70.704;2023-04-26T09:52:23;101199.94;;;24.59;60.30
250;BME280;109;19.806;-70.704;2023-04-26T09:54:51;101202.50;;;24.62;60.28
250;BME280;109;19.806;-70.704;2023-04-26T09:57:25;101200.75;;;24.61;60.43
250;BME280;109;19.806;-70.704;2023-04-26T09:59:53;101193.81;;;24.57;60.53
250;BME280;109;19.806;-70.704;2023-04-26T10:02:31;101201.06;;;24.55;60.32
250;BME280;109;19.806;-70.704;2023-04-26T10:04:58;101199.31;;;24.54;60.85
250;BME280;109;19.806;-70.704;2023-04-26T10:07:33;101197.38;;;24.58;60.53
250;BME280;109;19.806;-70.704;2023-04-26T10:10:00;101204.66;;;24.54;60.71
250;BME280;109;19.806;-70.704;2023-04-26T10:12:41;101209.03;;;24.57;60.81
250;BME280;109;19.806;-70.704;2023-04-26T10:15:14;101206.19;;;24.60;60.49
250;BME280;109;19.806;-70.704;2023-04-26T10:17:40;101212.06;;;24.68;60.62
250;BME280;109;19.806;-70.704;2023-04-26T10:20:15;101212.34;;;24.62;60.83
250;BME280;109;19.806;-70.704;2023-04-26T10:22:51;101205.25;;;24.61;60.90
250;BME280;109;19.806;-70.704;2023-04-26T10:25:37;101203.66;;;24.57;61.26
250;BME280;109;19.806;-70.704;2023-04-26T10:28:11;101207.03;;;24.60;61.07
250;BME280;109;19.806;-70.704;2023-04-26T10:30:58;101208.66;;;24.64;61.14
250;BME280;109;19.806;-70.704;2023-04-26T10:39:50;101210.38;;;24.65;60.91
250;BME280;109;19.806;-70.704;2023-04-26T10:42:29;101218.41;;;24.65;60.89
250;BME280;109;19.806;-70.704;2023-04-26T10:45:26;101227.31;;;24.66;60.42
250;BME280;109;19.806;-70.704;2023-04-26T10:51:10;101225.84;;;24.59;60.34
250;BME280;109;19.806;-70.704;2023-04-26T10:59:26;101242.72;;;24.81;60.04
250;BME280;109;19.806;-70.704;2023-04-26T11:01:53;101244.69;;;24.96;60.32
250;BME280;109;19.806;-70.704;2023-04-26T11:04:19;101249.28;;;25.11;59.85
250;BME280;109;19.806;-70.704;2023-04-26T11:06:53;101257.78;;;25.21;60.02
250;BME280;109;19.806;-70.704;2023-04-26T11:09:37;101260.84;;;25.32;59.39
250;BME280;109;19.806;-70.704;2023-04-26T11:12:11;101253.94;;;25.45;59.52
250;BME280;109;19.806;-70.704;2023-04-26T11:14:38;101253.88;;;25.64;58.92
250;BME280;109;19.806;-70.704;2023-04-26T11:17:07;101254.00;;;25.80;58.65
250;BME280;109;19.806;-70.704;2023-04-26T11:19:35;101255.63;;;25.84;58.36
250;BME280;109;19.806;-70.704;2023-04-26T11:22:02;101257.19;;;26.05;57.82
250;BME280;109;19.806;-70.704;2023-04-26T11:24:32;101260.19;;;26.16;57.91
250;BME280;109;19.806;-70.704;2023-04-26T11:27:07;101260.31;;;26.31;57.47
250;BME280;109;19.806;-70.704;2023-04-26T11:29:35;101264.22;;;26.42;57.12
250;BME280;109;19.806;-70.704;2023-04-26T11:32:01;101269.50;;;26.44;56.51
250;BME280;109;19.806;-70.704;2023-04-26T11:34:32;101270.84;;;26.53;56.10
250;BME280;109;19.806;-70.704;2023-04-26T11:37:01;101271.66;;;26.70;56.15
250;BME280;109;19.806;-70.704;2023-04-26T11:39:29;101271.16;;;26.79;56.33
250;BME280;109;19.806;-70.704;2023-04-26T11:42:09;101272.09;;;26.96;55.87
250;BME280;109;19.806;-70.704;2023-04-26T11:44:36;101273.59;;;27.01;55.56
250;BME280;109;19.806;-70.704;2023-04-26T11:47:06;101270.31;;;27.12;56.07
250;BME280;109;19.806;-70.704;2023-04-26T11:49:35;101276.88;;;27.22;55.81
250;BME280;109;19.806;-70.704;2023-04-26T11:52:03;101279.56;;;27.22;54.35
250;BME280;109;19.806;-70.704;2023-04-26T11:54:35;101287.88;;;27.02;55.47
250;BME280;109;19.806;-70.704;2023-04-26T11:57:15;101293.53;;;27.13;55.08
250;BME280;109;19.806;-70.704;2023-04-26T11:59:42;101295.50;;;27.09;56.06
250;BME280;109;19.806;-70.704;2023-04-26T12:02:09;101292.47;;;27.31;56.18
250;BME280;109;19.806;-70.704;2023-04-26T12:04:36;101290.88;;;27.44;55.96
250;BME280;109;19.806;-70.704;2023-04-26T12:07:05;101295.75;;;27.53;55.74
250;BME280;109;19.806;-70.704;2023-04-26T12:09:32;101300.94;;;27.57;55.56
250;BME280;109;19.806;-70.704;2023-04-26T12:12:03;101291.47;;;27.49;55.32
250;BME280;109;19.806;-70.704;2023-04-26T12:14:34;101292.00;;;27.56;55.00
250;BME280;109;19.806;-70.704;2023-04-26T12:17:03;101293.22;;;27.50;54.43
250;BME280;109;19.806;-70.704;2023-04-26T12:19:38;101302.94;;;27.69;53.38
250;BME280;109;19.806;-70.704;2023-04-26T12:22:07;101301.13;;;27.69;53.14
250;BME280;109;19.806;-70.704;2023-04-26T12:24:34;101299.63;;;27.64;53.46
250;BME280;109;19.806;-70.704;2023-04-26T12:27:03;101302.13;;;27.82;52.82
250;BME280;109;19.806;-70.704;2023-04-26T12:29:32;101305.19;;;27.45;53.34
250;BME280;109;19.806;-70.704;2023-04-26T12:31:59;101309.84;;;27.57;53.70
250;BME280;109;19.806;-70.704;2023-04-26T12:34:26;101312.63;;;27.40;53.42
250;BME280;109;19.806;-70.704;2023-04-26T12:36:52;101317.34;;;27.68;53.29
250;BME280;109;19.806;-70.704;2023-04-26T12:39:19;101312.28;;;27.46;53.83
250;BME280;109;19.806;-70.704;2023-04-26T12:41:46;101316.31;;;27.54;53.32
250;BME280;109;19.806;-70.704;2023-04-26T12:44:12;101318.22;;;27.52;54.16
250;BME280;109;19.806;-70.704;2023-04-26T12:46:39;101315.06;;;27.44;53.76
250;BME280;109;19.806;-70.704;2023-04-26T12:49:06;101325.28;;;27.85;53.98
250;BME280;109;19.806;-70.704;2023-04-26T12:51:32;101329.06;;;28.12;53.33
250;BME280;109;19.806;-70.704;2023-04-26T12:53:59;101322.66;;;28.15;52.98
250;BME280;109;19.806;-70.704;2023-04-26T12:56:25;101319.25;;;28.11;52.74
250;BME280;109;19.806;-70.704;2023-04-26T12:58:52;101324.41;;;27.84;52.95
250;BME280;109;19.806;-70.704;2023-04-26T13:01:19;101321.88;;;28.13;52.94
250;BME280;109;19.806;-70.704;2023-04-26T13:03:45;101319.63;;;27.89;53.13
250;BME280;109;19.806;-70.704;2023-04-26T13:06:12;101320.34;;;27.93;52.56
250;BME280;109;19.806;-70.704;2023-04-26T13:08:38;101325.19;;;27.86;52.44
250;BME280;109;19.806;-70.704;2023-04-26T13:11:05;101319.38;;;27.94;52.13
250;BME280;109;19.806;-70.704;2023-04-26T13:13:32;101322.94;;;27.95;51.95
250;BME280;109;19.806;-70.704;2023-04-26T13:15:58;101317.97;;;28.18;51.95
250;BME280;109;19.806;-70.704;2023-04-26T13:18:25;101311.66;;;28.34;51.27
250;BME280;109;19.806;-70.704;2023-04-26T13:20:51;101330.88;;;28.57;52.05
250;BME280;109;19.806;-70.704;2023-04-26T13:23:18;101316.56;;;28.71;51.51
250;BME280;109;19.806;-70.704;2023-04-26T13:25:44;101318.94;;;28.47;51.60
250;BME280;109;19.806;-70.704;2023-04-26T13:28:10;101319.69;;;28.64;51.66
250;BME280;109;19.806;-70.704;2023-04-26T13:30:37;101318.84;;;28.63;52.83
250;BME280;109;19.806;-70.704;2023-04-26T13:33:04;101318.06;;;28.61;53.25
250;BME280;109;19.806;-70.704;2023-04-26T13:35:30;101307.28;;;28.75;52.96
250;BME280;109;19.806;-70.704;2023-04-26T13:37:56;101321.53;;;28.91;52.58
250;BME280;109;19.806;-70.704;2023-04-26T13:40:23;101308.78;;;29.09;51.55
250;BME280;109;19.806;-70.704;2023-04-26T13:42:49;101311.38;;;29.25;51.63
250;BME280;109;19.806;-70.704;2023-04-26T13:45:16;101306.84;;;29.25;52.78
250;BME280;109;19.806;-70.704;2023-04-26T13:47:42;101315.81;;;28.98;51.89
250;BME280;109;19.806;-70.704;2023-04-26T13:50:09;101316.47;;;29.01;53.19
250;BME280;109;19.806;-70.704;2023-04-26T13:52:35;101318.41;;;28.99;54.35